Terminal Aerodrome Forecast
Issued by NWS Wichita, KS

Home | Current Version | Previous Version | Text Only | Print | Product List | Glossary On
Versions: 1 2 3 4 5 6 7 8 9 10 11 12 13 14 15 16 17 18 19 20 21 22
000
FTUS43 KICT 231100 RRA
TAFICT
TAF
KICT 231145Z 2312/2412 14017KT P6SM BKN130
     FM231400 17022G30KT P6SM BKN130
     FM231700 19026G35KT P6SM SCT120
     FM240100 17022G30KT P6SM SCT060=

USA.gov is the U.S. government's official web portal to all federal, state and local government web resources and services.